createdAt,value
2018-03-15T00:01:17.966Z,8.17
2018-03-15T00:03:28.436Z,8.50
2018-03-15T00:05:34.311Z,7.90
2018-03-15T00:07:40.929Z,8.23
2018-03-15T00:09:47.051Z,8.10
2018-03-15T00:11:53.307Z,8.17
2018-03-15T00:13:59.821Z,7.97
2018-03-15T00:16:05.520Z,8.10
2018-03-15T00:18:10.891Z,8.20
2018-03-15T00:20:16.810Z,8.10
2018-03-15T00:22:23.258Z,7.97
2018-03-15T00:24:28.724Z,8.47
2018-03-15T00:26:35.033Z,7.80
2018-03-15T00:28:40.677Z,7.53
2018-03-15T00:30:46.670Z,7.73
2018-03-15T00:32:52.398Z,7.77
2018-03-15T00:34:58.854Z,7.20
2018-03-15T00:37:05.079Z,7.20
2018-03-15T00:39:10.998Z,7.23
2018-03-15T00:41:16.610Z,6.70
2018-03-15T00:43:21.915Z,7.40
2018-03-15T00:45:27.253Z,7.20
2018-03-15T00:47:33.562Z,8.90
2018-03-15T00:49:43.252Z,8.03
2018-03-15T00:51:49.160Z,7.53
2018-03-15T00:53:55.299Z,7.87
2018-03-15T00:56:00.744Z,7.70
2018-03-15T00:58:06.679Z,8.07
2018-03-15T01:00:13.022Z,7.30
2018-03-15T01:02:18.882Z,7.70
2018-03-15T01:04:24.233Z,7.40
2018-03-15T01:06:30.892Z,7.53
2018-03-15T01:08:36.578Z,7.87
2018-03-15T01:10:42.363Z,7.50
2018-03-15T01:12:48.578Z,8.17
2018-03-15T01:14:54.461Z,7.60
2018-03-15T01:17:06.122Z,8.00
2018-03-15T01:19:12.572Z,7.80
2018-03-15T01:21:19.374Z,8.20
2018-03-15T01:23:24.672Z,7.73
2018-03-15T01:25:30.856Z,7.60
2018-03-15T01:27:36.835Z,7.23
2018-03-15T01:29:43.007Z,8.20
2018-03-15T01:31:49.220Z,7.33
2018-03-15T01:33:55.113Z,7.87
2018-03-15T01:36:01.232Z,8.43
2018-03-15T01:38:07.245Z,8.77
2018-03-15T01:40:13.007Z,7.67
2018-03-15T01:42:18.944Z,8.27
2018-03-15T01:44:25.361Z,7.60
2018-03-15T01:46:31.374Z,8.20
2018-03-15T01:48:37.119Z,7.97
2018-03-15T01:50:43.151Z,8.00
2018-03-15T01:52:49.064Z,8.27
2018-03-15T01:54:55.248Z,7.70
2018-03-15T01:57:01.612Z,8.93
2018-03-15T01:59:07.720Z,7.73
2018-03-15T02:01:13.828Z,7.80
2018-03-15T02:03:20.283Z,8.50
2018-03-15T02:05:26.403Z,8.80
2018-03-15T02:07:32.384Z,8.47
2018-03-15T02:09:38.926Z,8.33
2018-03-15T02:11:44.727Z,8.13
2018-03-15T02:13:50.664Z,8.20
2018-03-15T02:15:56.668Z,8.63
2018-03-15T02:18:02.523Z,7.80
2018-03-15T02:20:08.419Z,8.43
2018-03-15T02:22:14.632Z,9.47
2018-03-15T02:24:20.394Z,9.27
2018-03-15T02:26:26.327Z,8.47
2018-03-15T02:28:32.749Z,8.33
2018-03-15T02:30:38.594Z,8.90
2018-03-15T02:32:44.612Z,9.00
2018-03-15T02:34:50.706Z,8.70
2018-03-15T02:36:56.600Z,9.20
2018-03-15T02:39:02.613Z,8.50
2018-03-15T02:41:08.899Z,8.67
2018-03-15T02:43:19.399Z,8.80
2018-03-15T02:45:25.221Z,8.77
2018-03-15T02:47:31.302Z,8.97
2018-03-15T02:49:37.067Z,9.80
2018-03-15T02:51:43.107Z,9.03
2018-03-15T02:53:49.469Z,8.50
2018-03-15T02:55:55.418Z,8.83
2018-03-15T02:58:01.307Z,8.73
2018-03-15T03:00:08.209Z,8.17
2018-03-15T03:02:13.890Z,9.03
2018-03-15T03:04:19.399Z,8.83
2018-03-15T03:06:25.594Z,8.80
2018-03-15T03:08:31.766Z,9.70
2018-03-15T03:10:37.642Z,8.90
2018-03-15T03:12:44.040Z,9.20
2018-03-15T03:14:50.163Z,9.33
2018-03-15T03:16:55.875Z,8.37
2018-03-15T03:19:02.317Z,8.70
2018-03-15T03:21:08.557Z,8.80
2018-03-15T03:23:14.510Z,9.73
2018-03-15T03:25:25.212Z,9.33
2018-03-15T03:27:30.975Z,10.23
2018-03-15T03:29:36.962Z,9.57
2018-03-15T03:31:43.049Z,9.70
2018-03-15T03:33:48.908Z,9.80
2018-03-15T03:35:54.708Z,9.23
2018-03-15T03:38:01.017Z,9.93
2018-03-15T03:40:07.459Z,10.67
2018-03-15T03:42:13.187Z,9.67
2018-03-15T03:44:19.290Z,9.10
2018-03-15T03:46:25.154Z,9.83
2018-03-15T03:48:31.157Z,8.93
2018-03-15T03:50:37.312Z,8.97
2018-03-15T03:52:43.156Z,9.67
2018-03-15T03:54:49.394Z,9.20
2018-03-15T03:56:55.558Z,8.33
2018-03-15T03:59:00.935Z,9.77
2018-03-15T04:01:07.292Z,7.90
2018-03-15T04:03:13.592Z,9.70
2018-03-15T04:05:19.325Z,9.73
2018-03-15T04:07:25.252Z,9.33
2018-03-15T04:09:32.225Z,9.23
2018-03-15T04:11:38.696Z,9.13
2018-03-15T04:13:44.849Z,9.63
2018-03-15T04:15:51.217Z,10.20
2018-03-15T04:17:57.067Z,9.80
2018-03-15T04:20:03.135Z,9.07
2018-03-15T04:22:09.903Z,9.67
2018-03-15T04:24:15.779Z,10.00
2018-03-15T04:26:21.805Z,8.57
2018-03-15T04:28:27.964Z,9.80
2018-03-15T04:30:33.820Z,9.90
2018-03-15T04:32:39.925Z,9.73
2018-03-15T04:34:45.887Z,8.97
2018-03-15T04:36:51.648Z,9.40
2018-03-15T04:38:57.494Z,10.27
2018-03-15T04:41:03.745Z,8.93
2018-03-15T04:43:09.547Z,8.73
2018-03-15T04:45:15.224Z,9.03
2018-03-15T04:47:21.348Z,9.30
2018-03-15T04:49:27.094Z,8.20
2018-03-15T04:51:33.760Z,8.63
2018-03-15T04:53:39.816Z,8.80
2018-03-15T04:55:46.527Z,9.60
2018-03-15T04:57:52.351Z,9.40
2018-03-15T04:59:58.506Z,9.67
2018-03-15T05:02:04.588Z,9.60
2018-03-15T05:04:10.542Z,9.50
2018-03-15T05:06:16.120Z,9.80
2018-03-15T05:08:22.380Z,10.10
2018-03-15T05:10:28.876Z,9.97
2018-03-15T05:12:34.628Z,9.57
2018-03-15T05:14:40.476Z,9.50
2018-03-15T05:16:46.094Z,9.40
2018-03-15T05:18:52.296Z,10.50
2018-03-15T05:20:58.113Z,10.60
2018-03-15T05:23:04.158Z,10.23
2018-03-15T05:25:10.684Z,10.27
2018-03-15T05:27:17.003Z,10.10
2018-03-15T05:29:22.761Z,10.17
2018-03-15T05:31:29.163Z,10.10
2018-03-15T05:33:35.196Z,10.50
2018-03-15T05:35:40.976Z,10.37
2018-03-15T05:37:47.283Z,10.67
2018-03-15T05:39:53.259Z,11.00
2018-03-15T05:41:58.596Z,11.80
2018-03-15T05:44:06.038Z,10.73
2018-03-15T05:46:12.016Z,10.17
2018-03-15T05:50:28.898Z,10.80
2018-03-15T05:52:34.834Z,10.60
2018-03-15T05:54:40.798Z,10.23
2018-03-15T05:56:46.431Z,12.00
2018-03-15T05:58:52.654Z,10.77
2018-03-15T06:00:58.606Z,11.10
2018-03-15T06:03:04.430Z,11.47
2018-03-15T06:05:10.240Z,11.40
2018-03-15T06:07:15.610Z,187.37
2018-03-15T06:09:21.176Z,931.40
2018-03-15T06:11:26.532Z,359.60
2018-03-15T06:13:32.196Z,774.80
2018-03-15T06:15:38.363Z,107.50
2018-03-15T06:17:44.202Z,440.77
2018-03-15T06:19:50.156Z,118.77
2018-03-15T06:21:56.506Z,35.43
2018-03-15T06:24:01.805Z,21.50
2018-03-15T06:26:07.725Z,19.40
2018-03-15T06:28:13.872Z,746.43
2018-03-15T06:30:19.732Z,172.93
2018-03-15T06:32:25.231Z,595.67
2018-03-15T06:34:30.879Z,364.10
2018-03-15T06:36:36.332Z,624.17
2018-03-15T06:38:41.628Z,442.77
2018-03-15T06:40:48.346Z,344.43
2018-03-15T06:42:53.851Z,534.13
2018-03-15T06:45:00.170Z,737.47
2018-03-15T06:47:05.820Z,880.23
2018-03-15T06:49:11.108Z,438.00
2018-03-15T06:51:16.644Z,136.87
2018-03-15T06:53:23.404Z,67.60
2018-03-15T06:55:28.727Z,40.40
2018-03-15T06:57:34.631Z,28.73
2018-03-15T06:59:44.250Z,28.17
2018-03-15T07:01:51.473Z,24.27
2018-03-15T07:03:56.848Z,21.57
2018-03-15T07:06:02.549Z,19.60
2018-03-15T07:08:09.941Z,999.90
2018-03-15T07:10:15.241Z,999.90
2018-03-15T07:12:20.732Z,144.87
2018-03-15T07:14:26.185Z,999.90
2018-03-15T07:16:31.488Z,999.90
2018-03-15T07:18:38.092Z,333.73
2018-03-15T07:20:43.517Z,786.37
2018-03-15T07:22:52.836Z,815.00
2018-03-15T07:24:58.383Z,630.17
2018-03-15T07:27:03.835Z,999.90
2018-03-15T07:29:09.182Z,999.90
2018-03-15T07:31:14.827Z,436.53
2018-03-15T07:33:20.140Z,921.30
2018-03-15T07:35:25.424Z,553.10
2018-03-15T07:37:30.999Z,149.07
2018-03-15T07:39:36.705Z,999.90
2018-03-15T07:41:42.001Z,999.90
2018-03-15T07:43:48.069Z,727.30
2018-03-15T07:45:53.484Z,297.57
2018-03-15T07:47:58.933Z,95.67
2018-03-15T07:50:04.621Z,51.13
2018-03-15T07:52:11.143Z,994.47
2018-03-15T07:54:16.439Z,350.13
2018-03-15T07:56:21.992Z,959.37
2018-03-15T07:58:27.312Z,556.67
2018-03-15T08:00:32.605Z,941.87
2018-03-15T08:02:37.936Z,999.90
2018-03-15T08:04:43.537Z,471.37
2018-03-15T08:06:48.884Z,585.23
2018-03-15T08:08:54.209Z,780.97
2018-03-15T08:11:00.110Z,323.60
2018-03-15T08:13:05.400Z,873.63
2018-03-15T08:15:11.579Z,474.37
2018-03-15T08:17:17.232Z,908.83
2018-03-15T08:19:22.915Z,852.20
2018-03-15T08:21:28.445Z,460.50
2018-03-15T08:23:34.182Z,648.73
2018-03-15T08:25:39.613Z,161.27
2018-03-15T08:27:45.089Z,103.27
2018-03-15T08:29:50.733Z,477.00
2018-03-15T08:31:56.972Z,681.57
2018-03-15T08:34:03.270Z,691.67
2018-03-15T08:36:09.456Z,111.53
2018-03-15T08:38:14.798Z,50.70
2018-03-15T08:40:20.256Z,29.77
2018-03-15T08:42:25.827Z,27.93
2018-03-15T08:44:31.868Z,23.30
2018-03-15T08:46:37.160Z,22.07
2018-03-15T08:48:42.719Z,18.53
2018-03-15T08:50:48.032Z,18.43
2018-03-15T08:52:53.393Z,18.63
2018-03-15T08:54:59.058Z,18.53
2018-03-15T08:57:04.448Z,17.73
2018-03-15T08:59:09.861Z,22.70
2018-03-15T09:01:16.063Z,925.20
2018-03-15T09:03:22.012Z,304.17
2018-03-15T09:05:27.457Z,251.73
2018-03-15T09:07:33.009Z,402.20
2018-03-15T09:09:39.068Z,258.03
2018-03-15T09:11:44.801Z,269.90
2018-03-15T09:13:50.367Z,444.13
2018-03-15T09:15:55.638Z,691.80
2018-03-15T09:18:01.034Z,178.80
2018-03-15T09:20:06.915Z,60.97
2018-03-15T09:22:12.312Z,39.10
2018-03-15T09:24:17.554Z,25.27
2018-03-15T09:26:24.789Z,20.70
2018-03-15T09:28:30.055Z,19.77
2018-03-15T09:30:36.139Z,17.10
2018-03-15T09:32:42.936Z,165.47
2018-03-15T09:34:48.621Z,754.63
2018-03-15T09:36:54.610Z,149.23
2018-03-15T09:39:00.932Z,47.33
2018-03-15T09:41:07.026Z,427.13
2018-03-15T09:43:12.957Z,897.00
2018-03-15T09:45:18.956Z,275.40
2018-03-15T09:47:24.327Z,334.97
2018-03-15T09:49:32.099Z,142.73
2018-03-15T09:51:37.931Z,35.00
2018-03-15T09:53:43.783Z,595.00
2018-03-15T09:55:49.621Z,62.37
2018-03-15T09:57:55.395Z,540.10
2018-03-15T10:00:00.815Z,89.97
2018-03-15T10:02:06.909Z,37.57
2018-03-15T10:04:12.584Z,704.13
2018-03-15T10:06:17.932Z,168.73
2018-03-15T10:08:23.237Z,123.53
2018-03-15T10:10:33.552Z,608.83
2018-03-15T10:12:38.954Z,285.03
2018-03-15T10:14:44.395Z,151.67
2018-03-15T10:16:50.186Z,41.77
2018-03-15T10:18:55.494Z,850.33
2018-03-15T10:21:00.968Z,203.20
2018-03-15T10:23:07.193Z,999.90
2018-03-15T10:25:13.883Z,176.97
2018-03-15T10:27:19.484Z,44.60
2018-03-15T10:29:25.967Z,30.63
2018-03-15T10:31:36.035Z,20.17
2018-03-15T10:33:41.363Z,17.10
2018-03-15T10:35:48.911Z,14.90
2018-03-15T10:37:55.200Z,15.80
2018-03-15T10:40:00.576Z,16.33
2018-03-15T10:42:09.112Z,14.00
2018-03-15T10:44:14.556Z,12.90
2018-03-15T10:46:20.409Z,12.20
2018-03-15T10:48:26.120Z,13.03
2018-03-15T10:50:31.481Z,13.63
2018-03-15T10:52:37.395Z,12.63
2018-03-15T10:54:42.984Z,12.30
2018-03-15T10:56:49.035Z,12.30
2018-03-15T10:58:55.004Z,11.57
2018-03-15T11:01:04.689Z,11.37
2018-03-15T11:03:14.441Z,10.30
2018-03-15T11:05:23.696Z,11.40
2018-03-15T11:07:31.061Z,10.33
2018-03-15T11:09:37.020Z,10.60
2018-03-15T11:11:42.430Z,11.70
2018-03-15T11:13:48.075Z,11.50
2018-03-15T11:15:53.520Z,10.30
2018-03-15T11:17:58.828Z,9.80
2018-03-15T11:20:04.486Z,11.00
2018-03-15T11:22:09.795Z,11.37
2018-03-15T11:24:15.780Z,10.47
2018-03-15T11:26:22.088Z,10.47
2018-03-15T11:28:27.722Z,10.20
2018-03-15T11:30:33.602Z,10.10
2018-03-15T11:32:39.177Z,9.40
2018-03-15T11:34:44.404Z,9.40
2018-03-15T11:36:49.687Z,9.07
2018-03-15T11:38:56.078Z,9.53
2018-03-15T11:41:01.376Z,9.50
2018-03-15T11:43:06.635Z,8.10
2018-03-15T11:45:12.252Z,8.80
2018-03-15T11:47:18.109Z,9.77
2018-03-15T11:49:23.526Z,9.10
2018-03-15T11:51:29.857Z,8.63
2018-03-15T11:53:35.847Z,9.27
2018-03-15T11:55:41.772Z,8.80
2018-03-15T11:57:47.503Z,8.00
2018-03-15T11:59:59.721Z,9.97
2018-03-15T12:02:05.108Z,9.80
2018-03-15T12:04:10.819Z,8.50
2018-03-15T12:06:16.126Z,9.07
2018-03-15T12:08:21.440Z,8.20
2018-03-15T12:10:27.098Z,8.60
2018-03-15T12:12:35.380Z,9.57
2018-03-15T12:14:40.841Z,8.63
2018-03-15T12:16:46.493Z,9.43
2018-03-15T12:18:51.735Z,9.20
2018-03-15T12:20:57.053Z,9.10
2018-03-15T12:23:05.690Z,9.13
2018-03-15T12:25:12.051Z,8.80
2018-03-15T12:27:24.895Z,9.10
2018-03-15T12:29:32.056Z,9.60
2018-03-15T12:31:37.524Z,9.57
2018-03-15T12:33:42.923Z,8.57
2018-03-15T12:35:48.744Z,9.60
2018-03-15T12:37:54.284Z,9.63
2018-03-15T12:39:59.568Z,8.83
2018-03-15T12:42:05.574Z,9.60
2018-03-15T12:44:12.156Z,9.00
2018-03-15T12:46:17.490Z,7.93
2018-03-15T12:48:23.070Z,9.20
2018-03-15T12:50:28.374Z,9.70
2018-03-15T12:52:36.339Z,8.70
2018-03-15T12:54:44.404Z,8.63
2018-03-15T12:56:49.725Z,8.37
2018-03-15T12:58:55.105Z,8.57
2018-03-15T13:01:00.646Z,8.13
2018-03-15T13:03:07.537Z,8.00
2018-03-15T13:05:12.816Z,7.80
2018-03-15T13:07:18.353Z,8.27
2018-03-15T13:09:23.628Z,8.27
2018-03-15T13:11:31.120Z,8.40
2018-03-15T13:13:37.528Z,12.80
2018-03-15T13:15:42.972Z,681.40
2018-03-15T13:17:48.961Z,773.27
2018-03-15T13:19:57.499Z,999.90
2018-03-15T13:22:04.144Z,901.93
2018-03-15T13:24:11.002Z,391.13
2018-03-15T13:26:17.349Z,405.17
2018-03-15T13:28:23.306Z,277.43
2018-03-15T13:30:28.997Z,102.90
2018-03-15T13:32:34.786Z,35.30
2018-03-15T13:34:40.340Z,15.80
2018-03-15T13:36:46.020Z,14.27
2018-03-15T13:38:52.031Z,13.80
2018-03-15T13:40:57.777Z,11.63
2018-03-15T13:43:03.148Z,10.90
2018-03-15T13:45:08.839Z,9.90
2018-03-15T13:47:14.867Z,10.23
2018-03-15T13:49:22.161Z,7.93
2018-03-15T13:51:27.846Z,9.10
2018-03-15T13:53:33.119Z,7.72
2018-03-15T13:55:39.207Z,8.07
2018-03-15T13:57:44.772Z,7.50
2018-03-15T13:59:50.257Z,7.10
2018-03-15T14:01:56.115Z,7.30
2018-03-15T14:04:01.753Z,6.47
2018-03-15T14:06:07.276Z,6.97
2018-03-15T14:08:13.558Z,7.00
2018-03-15T14:10:19.188Z,7.73
2018-03-15T14:12:24.596Z,7.47
2018-03-15T14:14:29.960Z,7.00
2018-03-15T14:16:35.608Z,7.80
2018-03-15T14:18:42.369Z,7.60
2018-03-15T14:20:47.816Z,7.23
2018-03-15T14:22:53.592Z,90.30
2018-03-15T14:24:59.049Z,59.50
2018-03-15T14:27:05.720Z,42.63
2018-03-15T14:29:12.229Z,13.40
2018-03-15T14:31:18.300Z,9.07
2018-03-15T14:33:24.788Z,8.30
2018-03-15T14:35:31.416Z,8.17
2018-03-15T14:37:37.583Z,8.07
2018-03-15T14:39:43.750Z,7.10
2018-03-15T14:41:50.288Z,7.07
2018-03-15T14:43:55.825Z,7.20
2018-03-15T14:46:01.210Z,647.33
2018-03-15T14:48:06.832Z,999.90
2018-03-15T14:50:12.231Z,999.90
2018-03-15T14:52:17.595Z,999.90
2018-03-15T14:54:23.850Z,536.43
2018-03-15T14:56:32.472Z,729.87
2018-03-15T14:58:42.979Z,51.53
2018-03-15T15:00:48.769Z,24.70
2018-03-15T15:02:54.158Z,999.90
2018-03-15T15:05:00.496Z,243.63
2018-03-15T15:07:07.252Z,999.90
2018-03-15T15:09:13.348Z,999.90
2018-03-15T15:11:21.896Z,999.90
2018-03-15T15:13:27.700Z,451.00
2018-03-15T15:15:33.384Z,942.97
2018-03-15T15:17:39.554Z,999.90
2018-03-15T15:19:46.986Z,999.90
2018-03-15T15:21:53.003Z,999.90
2018-03-15T15:24:00.595Z,977.63
2018-03-15T15:26:14.668Z,572.93
2018-03-15T15:28:21.987Z,570.60
2018-03-15T15:30:28.161Z,180.57
2018-03-15T15:32:37.364Z,839.23
2018-03-15T15:34:43.596Z,142.20
2018-03-15T15:36:50.934Z,433.90
2018-03-15T15:38:56.657Z,430.17
2018-03-15T15:41:01.883Z,928.37
2018-03-15T15:43:08.566Z,343.80
2018-03-15T15:45:14.798Z,762.07
2018-03-15T15:47:20.271Z,66.40
2018-03-15T15:49:25.548Z,480.23
2018-03-15T15:51:31.731Z,59.53
2018-03-15T15:53:37.212Z,21.97
2018-03-15T15:55:42.552Z,17.23
2018-03-15T15:57:48.240Z,14.70
2018-03-15T15:59:53.709Z,14.13
2018-03-15T16:01:59.535Z,13.80
2018-03-15T16:04:06.811Z,13.13
2018-03-15T16:06:12.093Z,12.27
2018-03-15T16:08:17.563Z,12.67
2018-03-15T16:10:27.744Z,999.90
2018-03-15T16:12:33.853Z,557.77
2018-03-15T16:14:39.814Z,999.90
2018-03-15T16:16:46.084Z,791.93
2018-03-15T16:18:52.201Z,530.40
2018-03-15T16:20:58.286Z,451.50
2018-03-15T16:23:04.145Z,222.20
2018-03-15T16:25:09.818Z,834.37
2018-03-15T16:27:15.535Z,726.70
2018-03-15T16:29:21.663Z,402.63
2018-03-15T16:31:27.782Z,48.60
2018-03-15T16:33:34.672Z,73.07
2018-03-15T16:35:40.516Z,37.70
2018-03-15T16:37:46.349Z,482.27
2018-03-15T16:39:51.839Z,561.43
2018-03-15T16:41:57.835Z,182.37
2018-03-15T16:44:03.481Z,39.27
2018-03-15T16:46:09.865Z,23.23
2018-03-15T16:48:15.662Z,19.37
2018-03-15T16:50:21.136Z,292.40
2018-03-15T16:52:26.939Z,79.27
2018-03-15T16:54:32.609Z,62.17
2018-03-15T16:56:37.955Z,690.57
2018-03-15T16:58:45.698Z,79.77
2018-03-15T17:00:51.649Z,32.87
2018-03-15T17:02:57.154Z,22.10
2018-03-15T17:05:03.019Z,596.63
2018-03-15T17:07:08.819Z,49.93
2018-03-15T17:09:14.236Z,23.80
2018-03-15T17:11:19.876Z,22.10
2018-03-15T17:13:25.644Z,20.93
2018-03-15T17:15:30.999Z,17.83
2018-03-15T17:17:36.995Z,16.77
2018-03-15T17:19:42.751Z,16.63
2018-03-15T17:21:48.221Z,17.93
2018-03-15T17:23:53.849Z,16.10
2018-03-15T17:26:00.224Z,16.40
2018-03-15T17:28:05.640Z,15.47
2018-03-15T17:30:11.667Z,15.70
2018-03-15T17:32:17.321Z,16.33
2018-03-15T17:34:22.741Z,16.83
2018-03-15T17:36:28.352Z,15.80
2018-03-15T17:38:34.257Z,16.33
2018-03-15T17:40:39.741Z,15.70
2018-03-15T17:42:45.126Z,15.90
2018-03-15T17:44:51.128Z,16.60
2018-03-15T17:46:56.600Z,14.17
2018-03-15T17:49:02.234Z,14.23
2018-03-15T17:51:08.126Z,15.03
2018-03-15T17:53:14.001Z,15.10
2018-03-15T17:55:19.969Z,14.10
2018-03-15T17:57:25.860Z,14.60
2018-03-15T17:59:31.948Z,14.17
2018-03-15T18:01:37.320Z,14.20
2018-03-15T18:03:46.615Z,14.77
2018-03-15T18:05:51.959Z,13.67
2018-03-15T18:07:57.324Z,14.10
2018-03-15T18:10:03.368Z,13.27
2018-03-15T18:12:08.772Z,13.47
2018-03-15T18:14:14.248Z,14.27
2018-03-15T18:16:20.240Z,13.10
2018-03-15T18:18:25.560Z,13.43
2018-03-15T18:20:30.866Z,13.87
2018-03-15T18:22:36.734Z,13.63
2018-03-15T18:24:42.020Z,13.87
2018-03-15T18:26:47.660Z,13.40
2018-03-15T18:28:53.347Z,13.07
2018-03-15T18:30:58.736Z,13.37
2018-03-15T18:33:04.172Z,13.70
2018-03-15T18:35:11.548Z,13.77
2018-03-15T18:37:16.953Z,12.70
2018-03-15T18:39:22.434Z,14.67
2018-03-15T18:41:28.105Z,14.13
2018-03-15T18:43:33.519Z,13.77
2018-03-15T18:45:38.856Z,14.67
2018-03-15T18:47:44.464Z,14.90
2018-03-15T18:49:49.877Z,14.33
2018-03-15T18:51:55.768Z,14.80
2018-03-15T18:54:01.767Z,14.40
2018-03-15T18:56:07.157Z,13.13
2018-03-15T18:58:12.738Z,13.50
2018-03-15T19:00:18.408Z,14.57
2018-03-15T19:02:23.707Z,14.70
2018-03-15T19:04:29.319Z,13.80
2018-03-15T19:06:35.003Z,12.47
2018-03-15T19:08:40.316Z,14.10
2018-03-15T19:10:45.761Z,14.60
2018-03-15T19:12:54.448Z,14.20
2018-03-15T19:14:59.769Z,14.13
2018-03-15T19:17:05.197Z,13.27
2018-03-15T19:19:10.837Z,13.63
2018-03-15T19:21:16.230Z,13.83
2018-03-15T19:23:21.598Z,13.27
2018-03-15T19:25:27.429Z,13.10
2018-03-15T19:27:32.683Z,12.63
2018-03-15T19:29:38.225Z,13.13
2018-03-15T19:31:43.912Z,13.53
2018-03-15T19:33:49.333Z,13.00
2018-03-15T19:35:54.850Z,11.90
2018-03-15T19:38:01.960Z,12.13
2018-03-15T19:40:07.449Z,13.10
2018-03-15T19:42:12.784Z,12.70
2018-03-15T19:44:18.372Z,12.20
2018-03-15T19:46:23.708Z,12.20
2018-03-15T19:48:30.305Z,12.30
2018-03-15T19:50:35.928Z,11.33
2018-03-15T19:52:41.460Z,12.30
2018-03-15T19:54:46.822Z,12.70
2018-03-15T19:56:52.523Z,12.53
2018-03-15T19:58:57.871Z,13.93
2018-03-15T20:01:03.873Z,12.70
2018-03-15T20:03:09.624Z,12.70
2018-03-15T20:05:14.904Z,12.13
2018-03-15T20:07:20.338Z,13.37
2018-03-15T20:09:26.048Z,14.33
2018-03-15T20:11:31.328Z,13.93
2018-03-15T20:13:36.728Z,13.60
2018-03-15T20:15:46.354Z,13.33
2018-03-15T20:17:52.104Z,13.70
2018-03-15T20:19:57.448Z,13.30
2018-03-15T20:22:03.102Z,13.97
2018-03-15T20:24:13.512Z,14.07
2018-03-15T20:26:18.868Z,14.23
2018-03-15T20:28:54.545Z,14.27
2018-03-15T20:30:59.988Z,15.13
2018-03-15T20:34:10.552Z,16.00
2018-03-15T20:36:16.240Z,16.90
2018-03-15T20:38:21.620Z,15.53
2018-03-15T20:40:31.664Z,16.13
2018-03-15T20:42:37.333Z,16.70
2018-03-15T20:44:43.472Z,16.00
2018-03-15T20:48:54.980Z,15.83
2018-03-15T20:51:00.538Z,16.30
2018-03-15T20:53:10.495Z,17.57
2018-03-15T20:55:18.891Z,17.93
2018-03-15T20:57:27.631Z,18.10
2018-03-15T20:59:32.912Z,17.53
2018-03-15T21:01:38.535Z,16.90
2018-03-15T21:03:43.914Z,17.27
2018-03-15T21:05:49.775Z,17.33
2018-03-15T21:07:55.387Z,17.00
2018-03-15T21:10:00.752Z,18.87
2018-03-15T21:12:06.126Z,19.40
2018-03-15T21:14:13.835Z,17.50
2018-03-15T21:16:19.781Z,19.10
2018-03-15T21:18:26.140Z,18.40
2018-03-15T21:20:31.831Z,17.90
2018-03-15T21:22:37.701Z,19.13
2018-03-15T21:24:43.053Z,20.00
2018-03-15T21:26:48.627Z,18.87
2018-03-15T21:28:54.436Z,19.13
2018-03-15T21:30:59.858Z,20.27
2018-03-15T21:33:05.952Z,18.63
2018-03-15T21:35:11.634Z,20.20
2018-03-15T21:37:17.769Z,19.07
2018-03-15T21:39:23.609Z,21.03
2018-03-15T21:41:29.165Z,20.40
2018-03-15T21:43:34.504Z,20.83
2018-03-15T21:45:40.184Z,19.90
2018-03-15T21:47:45.531Z,21.60
2018-03-15T21:49:50.860Z,21.30
2018-03-15T21:51:56.920Z,22.30
2018-03-15T21:54:02.294Z,21.93
2018-03-15T21:56:08.006Z,21.73
2018-03-15T21:58:13.822Z,22.00
2018-03-15T22:00:19.453Z,21.63
2018-03-15T22:02:25.048Z,22.20
2018-03-15T22:04:30.827Z,22.97
2018-03-15T22:06:38.328Z,20.93
2018-03-15T22:08:43.741Z,23.90
2018-03-15T22:10:49.508Z,21.83
2018-03-15T22:12:54.888Z,22.60
2018-03-15T22:15:00.593Z,23.67
2018-03-15T22:17:06.742Z,23.70
2018-03-15T22:19:12.162Z,22.90
2018-03-15T22:21:18.142Z,23.40
2018-03-15T22:23:24.107Z,23.70
2018-03-15T22:25:31.265Z,23.57
2018-03-15T22:27:36.507Z,22.70
2018-03-15T22:29:43.078Z,24.20
2018-03-15T22:31:48.570Z,23.93
2018-03-15T22:33:53.967Z,23.43
2018-03-15T22:36:00.446Z,24.00
2018-03-15T22:38:05.761Z,24.33
2018-03-15T22:40:12.727Z,695.87
2018-03-15T22:42:18.427Z,999.90
2018-03-15T22:44:23.775Z,859.23
2018-03-15T22:46:29.684Z,242.90
2018-03-15T22:48:35.277Z,187.50
2018-03-15T22:50:40.966Z,464.23
2018-03-15T22:52:46.436Z,64.10
2018-03-15T22:54:52.652Z,605.83
2018-03-15T22:56:58.481Z,577.03
2018-03-15T22:59:05.203Z,706.77
2018-03-15T23:01:10.825Z,260.07
2018-03-15T23:03:16.652Z,70.90
2018-03-15T23:05:21.947Z,122.20
2018-03-15T23:07:28.622Z,49.43
2018-03-15T23:09:34.090Z,824.47
2018-03-15T23:11:39.380Z,750.57
2018-03-15T23:13:45.834Z,82.13
2018-03-15T23:15:52.123Z,42.07
2018-03-15T23:17:57.449Z,40.00
2018-03-15T23:20:03.255Z,182.57
2018-03-15T23:22:09.456Z,923.70
2018-03-15T23:24:14.899Z,567.97
2018-03-15T23:26:20.477Z,71.63
2018-03-15T23:28:25.792Z,45.20
2018-03-15T23:30:32.699Z,38.93
2018-03-15T23:32:43.309Z,753.37
2018-03-15T23:34:48.627Z,899.57
2018-03-15T23:36:55.066Z,115.60
2018-03-15T23:39:01.376Z,95.53
2018-03-15T23:41:06.750Z,999.90
2018-03-15T23:43:12.013Z,999.90
2018-03-15T23:45:17.702Z,361.33
2018-03-15T23:47:23.179Z,977.17
2018-03-15T23:49:28.831Z,999.90
2018-03-15T23:51:35.051Z,346.07
2018-03-15T23:53:40.376Z,61.47
2018-03-15T23:55:45.689Z,382.23
2018-03-15T23:57:52.036Z,130.00
2018-03-15T23:59:58.077Z,335.07
